sensor_id;sensor_type;location;lat;lon;timestamp;temperature;humidity
76040;SHT30;64736;50.462;4.850;2023-03-03T00:00:15;1.34;78.51
76040;SHT30;64736;50.462;4.850;2023-03-03T00:02:41;1.21;79.04
76040;SHT30;64736;50.462;4.850;2023-03-03T00:05:07;1.22;79.22
76040;SHT30;64736;50.462;4.850;2023-03-03T00:07:33;1.15;79.58
76040;SHT30;64736;50.462;4.850;2023-03-03T00:09:59;1.31;79.85
76040;SHT30;64736;50.462;4.850;2023-03-03T00:12:29;1.38;79.58
76040;SHT30;64736;50.462;4.850;2023-03-03T00:14:56;1.52;79.56
76040;SHT30;64736;50.462;4.850;2023-03-03T00:17:26;1.39;79.51
76040;SHT30;64736;50.462;4.850;2023-03-03T00:19:53;1.39;79.95
76040;SHT30;64736;50.462;4.850;2023-03-03T00:22:36;1.55;79.08
76040;SHT30;64736;50.462;4.850;2023-03-03T00:25:32;1.40;79.54
76040;SHT30;64736;50.462;4.850;2023-03-03T00:30:45;1.31;79.97
76040;SHT30;64736;50.462;4.850;2023-03-03T00:33:30;1.34;79.70
76040;SHT30;64736;50.462;4.850;2023-03-03T00:36:21;1.25;79.72
76040;SHT30;64736;50.462;4.850;2023-03-03T00:38:48;1.47;79.56
76040;SHT30;64736;50.462;4.850;2023-03-03T00:41:25;1.46;79.72
76040;SHT30;64736;50.462;4.850;2023-03-03T00:43:52;1.42;79.87
76040;SHT30;64736;50.462;4.850;2023-03-03T00:46:19;1.49;80.21
76040;SHT30;64736;50.462;4.850;2023-03-03T00:48:47;1.32;79.41
76040;SHT30;64736;50.462;4.850;2023-03-03T00:51:18;1.25;79.91
76040;SHT30;64736;50.462;4.850;2023-03-03T00:53:45;1.29;80.18
76040;SHT30;64736;50.462;4.850;2023-03-03T00:56:11;1.15;80.87
76040;SHT30;64736;50.462;4.850;2023-03-03T00:58:37;0.95;82.07
76040;SHT30;64736;50.462;4.850;2023-03-03T01:01:03;0.78;83.23
76040;SHT30;64736;50.462;4.850;2023-03-03T01:03:28;0.78;83.50
76040;SHT30;64736;50.462;4.850;2023-03-03T01:05:54;1.08;82.62
76040;SHT30;64736;50.462;4.850;2023-03-03T01:08:21;1.07;82.32
76040;SHT30;64736;50.462;4.850;2023-03-03T01:10:49;1.14;81.75
76040;SHT30;64736;50.462;4.850;2023-03-03T01:13:16;0.77;82.69
76040;SHT30;64736;50.462;4.850;2023-03-03T01:15:43;0.83;83.59
76040;SHT30;64736;50.462;4.850;2023-03-03T01:18:12;1.18;82.91
76040;SHT30;64736;50.462;4.850;2023-03-03T01:20:38;1.09;82.44
76040;SHT30;64736;50.462;4.850;2023-03-03T01:23:04;1.26;81.70
76040;SHT30;64736;50.462;4.850;2023-03-03T01:25:30;1.09;82.01
76040;SHT30;64736;50.462;4.850;2023-03-03T01:27:56;0.97;82.08
76040;SHT30;64736;50.462;4.850;2023-03-03T01:30:23;1.16;81.68
76040;SHT30;64736;50.462;4.850;2023-03-03T01:32:48;0.88;82.49
76040;SHT30;64736;50.462;4.850;2023-03-03T01:35:15;0.73;83.95
76040;SHT30;64736;50.462;4.850;2023-03-03T01:37:40;0.64;84.96
76040;SHT30;64736;50.462;4.850;2023-03-03T01:40:18;0.49;85.28
76040;SHT30;64736;50.462;4.850;2023-03-03T01:42:45;0.68;85.27
76040;SHT30;64736;50.462;4.850;2023-03-03T01:45:21;0.56;84.88
76040;SHT30;64736;50.462;4.850;2023-03-03T01:50:41;0.63;85.14
76040;SHT30;64736;50.462;4.850;2023-03-03T01:53:15;0.28;85.59
76040;SHT30;64736;50.462;4.850;2023-03-03T01:55:43;0.35;86.05
76040;SHT30;64736;50.462;4.850;2023-03-03T01:58:16;0.40;85.62
76040;SHT30;64736;50.462;4.850;2023-03-03T02:00:49;0.42;85.91
76040;SHT30;64736;50.462;4.850;2023-03-03T02:03:18;0.52;86.74
76040;SHT30;64736;50.462;4.850;2023-03-03T02:05:45;0.67;86.70
76040;SHT30;64736;50.462;4.850;2023-03-03T02:08:18;0.45;86.23
76040;SHT30;64736;50.462;4.850;2023-03-03T02:10:49;0.56;86.49
76040;SHT30;64736;50.462;4.850;2023-03-03T02:13:16;0.52;87.13
76040;SHT30;64736;50.462;4.850;2023-03-03T02:15:41;0.67;86.83
76040;SHT30;64736;50.462;4.850;2023-03-03T02:18:13;0.56;87.60
76040;SHT30;64736;50.462;4.850;2023-03-03T02:21:04;0.49;87.86
76040;SHT30;64736;50.462;4.850;2023-03-03T02:26:17;0.64;88.07
76040;SHT30;64736;50.462;4.850;2023-03-03T02:28:43;0.76;87.67
76040;SHT30;64736;50.462;4.850;2023-03-03T02:31:12;0.68;87.71
76040;SHT30;64736;50.462;4.850;2023-03-03T02:33:40;0.66;87.93
76040;SHT30;64736;50.462;4.850;2023-03-03T02:36:20;0.74;87.78
76040;SHT30;64736;50.462;4.850;2023-03-03T02:39:10;0.71;87.79
76040;SHT30;64736;50.462;4.850;2023-03-03T02:44:15;0.89;87.83
76040;SHT30;64736;50.462;4.850;2023-03-03T02:46:44;0.83;87.64
76040;SHT30;64736;50.462;4.850;2023-03-03T02:49:13;0.74;88.19
76040;SHT30;64736;50.462;4.850;2023-03-03T02:51:39;0.88;88.24
76040;SHT30;64736;50.462;4.850;2023-03-03T02:54:07;0.81;88.24
76040;SHT30;64736;50.462;4.850;2023-03-03T02:56:34;0.71;88.64
76040;SHT30;64736;50.462;4.850;2023-03-03T02:59:00;0.64;89.01
76040;SHT30;64736;50.462;4.850;2023-03-03T03:01:26;0.57;89.37
76040;SHT30;64736;50.462;4.850;2023-03-03T03:03:51;0.61;89.46
76040;SHT30;64736;50.462;4.850;2023-03-03T03:06:17;0.52;89.44
76040;SHT30;64736;50.462;4.850;2023-03-03T03:08:43;0.52;89.59
76040;SHT30;64736;50.462;4.850;2023-03-03T03:11:08;0.50;89.53
76040;SHT30;64736;50.462;4.850;2023-03-03T03:13:34;0.43;89.88
76040;SHT30;64736;50.462;4.850;2023-03-03T03:16:00;0.39;90.03
76040;SHT30;64736;50.462;4.850;2023-03-03T03:18:27;0.49;90.13
76040;SHT30;64736;50.462;4.850;2023-03-03T03:20:52;0.45;90.02
76040;SHT30;64736;50.462;4.850;2023-03-03T03:23:18;0.30;90.13
76040;SHT30;64736;50.462;4.850;2023-03-03T03:25:47;0.29;90.37
76040;SHT30;64736;50.462;4.850;2023-03-03T03:28:15;0.30;90.53
76040;SHT30;64736;50.462;4.850;2023-03-03T03:30:42;0.29;90.56
76040;SHT30;64736;50.462;4.850;2023-03-03T03:33:09;0.30;90.56
76040;SHT30;64736;50.462;4.850;2023-03-03T03:35:35;0.28;90.66
76040;SHT30;64736;50.462;4.850;2023-03-03T03:38:01;0.40;90.61
76040;SHT30;64736;50.462;4.850;2023-03-03T03:40:27;0.33;90.44
76040;SHT30;64736;50.462;4.850;2023-03-03T03:42:53;0.36;90.48
76040;SHT30;64736;50.462;4.850;2023-03-03T03:45:19;0.38;90.59
76040;SHT30;64736;50.462;4.850;2023-03-03T03:47:46;0.38;90.57
76040;SHT30;64736;50.462;4.850;2023-03-03T03:50:12;0.33;90.58
76040;SHT30;64736;50.462;4.850;2023-03-03T03:52:38;0.26;90.66
76040;SHT30;64736;50.462;4.850;2023-03-03T03:55:04;0.30;90.72
76040;SHT30;64736;50.462;4.850;2023-03-03T03:57:30;0.32;90.69
76040;SHT30;64736;50.462;4.850;2023-03-03T03:59:56;0.38;90.65
76040;SHT30;64736;50.462;4.850;2023-03-03T04:02:22;0.16;90.91
76040;SHT30;64736;50.462;4.850;2023-03-03T04:04:48;0.25;91.09
76040;SHT30;64736;50.462;4.850;2023-03-03T04:07:13;0.13;91.26
76040;SHT30;64736;50.462;4.850;2023-03-03T04:09:39;0.18;91.41
76040;SHT30;64736;50.462;4.850;2023-03-03T04:12:05;0.33;91.29
76040;SHT30;64736;50.462;4.850;2023-03-03T04:14:31;0.26;91.15
76040;SHT30;64736;50.462;4.850;2023-03-03T04:16:57;0.18;91.20
76040;SHT30;64736;50.462;4.850;2023-03-03T04:19:23;0.20;91.28
76040;SHT30;64736;50.462;4.850;2023-03-03T04:21:50;0.18;91.42
76040;SHT30;64736;50.462;4.850;2023-03-03T04:24:15;0.19;91.64
76040;SHT30;64736;50.462;4.850;2023-03-03T04:26:41;0.16;91.55
76040;SHT30;64736;50.462;4.850;2023-03-03T04:29:07;0.18;91.62
76040;SHT30;64736;50.462;4.850;2023-03-03T04:31:32;0.16;91.59
76040;SHT30;64736;50.462;4.850;2023-03-03T04:33:58;0.06;91.59
76040;SHT30;64736;50.462;4.850;2023-03-03T04:36:24;0.12;91.70
76040;SHT30;64736;50.462;4.850;2023-03-03T04:38:50;-0.03;91.74
76040;SHT30;64736;50.462;4.850;2023-03-03T04:41:16;-0.01;91.94
76040;SHT30;64736;50.462;4.850;2023-03-03T04:43:41;-0.12;92.10
76040;SHT30;64736;50.462;4.850;2023-03-03T04:46:07;-0.02;92.41
76040;SHT30;64736;50.462;4.850;2023-03-03T04:48:33;-0.01;92.52
76040;SHT30;64736;50.462;4.850;2023-03-03T04:50:58;0.06;92.53
76040;SHT30;64736;50.462;4.850;2023-03-03T04:53:24;-0.02;92.49
76040;SHT30;64736;50.462;4.850;2023-03-03T04:55:51;0.01;92.40
76040;SHT30;64736;50.462;4.850;2023-03-03T04:58:18;-0.03;92.43
76040;SHT30;64736;50.462;4.850;2023-03-03T05:00:45;-0.16;92.48
76040;SHT30;64736;50.462;4.850;2023-03-03T05:03:12;-0.12;92.58
76040;SHT30;64736;50.462;4.850;2023-03-03T05:05:37;-0.18;92.67
76040;SHT30;64736;50.462;4.850;2023-03-03T05:08:03;-0.09;92.69
76040;SHT30;64736;50.462;4.850;2023-03-03T05:10:29;-0.16;93.05
76040;SHT30;64736;50.462;4.850;2023-03-03T05:12:55;-0.06;93.19
76040;SHT30;64736;50.462;4.850;2023-03-03T05:15:21;-0.23;93.26
76040;SHT30;64736;50.462;4.850;2023-03-03T05:17:47;-0.25;93.29
76040;SHT30;64736;50.462;4.850;2023-03-03T05:20:13;-0.25;93.40
76040;SHT30;64736;50.462;4.850;2023-03-03T05:22:38;-0.32;93.41
76040;SHT30;64736;50.462;4.850;2023-03-03T05:25:05;-0.32;93.47
76040;SHT30;64736;50.462;4.850;2023-03-03T05:27:31;-0.34;93.56
76040;SHT30;64736;50.462;4.850;2023-03-03T05:29:56;-0.39;93.63
76040;SHT30;64736;50.462;4.850;2023-03-03T05:32:22;-0.39;93.64
76040;SHT30;64736;50.462;4.850;2023-03-03T05:34:48;-0.34;93.74
76040;SHT30;64736;50.462;4.850;2023-03-03T05:37:13;-0.39;93.84
76040;SHT30;64736;50.462;4.850;2023-03-03T05:39:40;-0.37;93.88
76040;SHT30;64736;50.462;4.850;2023-03-03T05:42:05;-0.36;93.93
76040;SHT30;64736;50.462;4.850;2023-03-03T05:44:31;-0.33;93.91
76040;SHT30;64736;50.462;4.850;2023-03-03T05:46:57;-0.43;93.96
76040;SHT30;64736;50.462;4.850;2023-03-03T05:49:24;-0.36;93.96
76040;SHT30;64736;50.462;4.850;2023-03-03T05:51:50;-0.37;93.92
76040;SHT30;64736;50.462;4.850;2023-03-03T05:54:16;-0.44;93.89
76040;SHT30;64736;50.462;4.850;2023-03-03T05:56:42;-0.52;93.89
76040;SHT30;64736;50.462;4.850;2023-03-03T05:59:08;-0.41;93.96
76040;SHT30;64736;50.462;4.850;2023-03-03T06:01:33;-0.52;94.09
76040;SHT30;64736;50.462;4.850;2023-03-03T06:03:59;-0.37;94.04
76040;SHT30;64736;50.462;4.850;2023-03-03T06:06:25;-0.40;94.01
76040;SHT30;64736;50.462;4.850;2023-03-03T06:08:52;-0.40;93.96
76040;SHT30;64736;50.462;4.850;2023-03-03T06:11:18;-0.33;94.00
76040;SHT30;64736;50.462;4.850;2023-03-03T06:13:44;-0.47;94.78
76040;SHT30;64736;50.462;4.850;2023-03-03T06:16:10;-0.46;94.69
76040;SHT30;64736;50.462;4.850;2023-03-03T06:18:36;-0.44;94.60
76040;SHT30;64736;50.462;4.850;2023-03-03T06:21:01;-0.41;94.55
76040;SHT30;64736;50.462;4.850;2023-03-03T06:23:27;-0.44;94.48
76040;SHT30;64736;50.462;4.850;2023-03-03T06:25:53;-0.37;94.49
76040;SHT30;64736;50.462;4.850;2023-03-03T06:28:19;-0.61;94.43
76040;SHT30;64736;50.462;4.850;2023-03-03T06:30:45;-0.63;94.38
76040;SHT30;64736;50.462;4.850;2023-03-03T06:33:10;-0.60;94.37
76040;SHT30;64736;50.462;4.850;2023-03-03T06:35:36;-0.70;94.36
76040;SHT30;64736;50.462;4.850;2023-03-03T06:38:02;-0.66;94.42
76040;SHT30;64736;50.462;4.850;2023-03-03T06:40:28;-0.64;94.39
76040;SHT30;64736;50.462;4.850;2023-03-03T06:42:54;-0.58;94.46
76040;SHT30;64736;50.462;4.850;2023-03-03T06:45:20;-0.68;94.42
76040;SHT30;64736;50.462;4.850;2023-03-03T06:47:45;-0.67;94.39
76040;SHT30;64736;50.462;4.850;2023-03-03T06:50:12;-0.67;94.40
76040;SHT30;64736;50.462;4.850;2023-03-03T06:52:38;-0.68;94.34
76040;SHT30;64736;50.462;4.850;2023-03-03T06:55:12;-0.64;94.26
76040;SHT30;64736;50.462;4.850;2023-03-03T06:57:41;-0.70;94.22
76040;SHT30;64736;50.462;4.850;2023-03-03T07:00:21;-0.56;94.22
76040;SHT30;64736;50.462;4.850;2023-03-03T07:02:59;-0.53;94.16
76040;SHT30;64736;50.462;4.850;2023-03-03T07:05:27;-0.41;94.07
76040;SHT30;64736;50.462;4.850;2023-03-03T07:07:55;-0.58;93.95
76040;SHT30;64736;50.462;4.850;2023-03-03T07:10:26;-0.54;93.86
76040;SHT30;64736;50.462;4.850;2023-03-03T07:12:52;-0.64;93.76
76040;SHT30;64736;50.462;4.850;2023-03-03T07:15:22;-0.64;93.68
76040;SHT30;64736;50.462;4.850;2023-03-03T07:17:54;-0.66;93.72
76040;SHT30;64736;50.462;4.850;2023-03-03T07:20:28;-0.66;93.70
76040;SHT30;64736;50.462;4.850;2023-03-03T07:22:54;-0.74;93.65
76040;SHT30;64736;50.462;4.850;2023-03-03T07:27:52;-0.84;93.46
76040;SHT30;64736;50.462;4.850;2023-03-03T07:30:27;-0.80;93.34
76040;SHT30;64736;50.462;4.850;2023-03-03T07:32:58;-0.78;93.21
76040;SHT30;64736;50.462;4.850;2023-03-03T07:37:59;-0.77;92.98
76040;SHT30;64736;50.462;4.850;2023-03-03T07:40:37;-0.83;92.82
76040;SHT30;64736;50.462;4.850;2023-03-03T07:43:29;-0.84;92.66
76040;SHT30;64736;50.462;4.850;2023-03-03T07:47:01;-0.77;92.41
76040;SHT30;64736;50.462;4.850;2023-03-03T07:49:33;-0.63;92.07
76040;SHT30;64736;50.462;4.850;2023-03-03T07:52:00;-0.63;91.80
76040;SHT30;64736;50.462;4.850;2023-03-03T07:54:30;-0.49;91.61
76040;SHT30;64736;50.462;4.850;2023-03-03T07:57:25;-0.54;91.22
76040;SHT30;64736;50.462;4.850;2023-03-03T08:01:24;-0.56;91.06
76040;SHT30;64736;50.462;4.850;2023-03-03T08:02:58;-0.58;91.13
76040;SHT30;64736;50.462;4.850;2023-03-03T08:08:11;-0.67;91.16
76040;SHT30;64736;50.462;4.850;2023-03-03T08:10:48;-0.77;91.04
76040;SHT30;64736;50.462;4.850;2023-03-03T08:18:35;-0.58;90.60
76040;SHT30;64736;50.462;4.850;2023-03-03T08:21:10;-0.61;90.40
76040;SHT30;64736;50.462;4.850;2023-03-03T08:23:37;-0.58;90.36
76040;SHT30;64736;50.462;4.850;2023-03-03T08:26:03;-0.52;90.28
76040;SHT30;64736;50.462;4.850;2023-03-03T08:28:29;-0.44;90.01
76040;SHT30;64736;50.462;4.850;2023-03-03T08:30:55;-0.49;89.83
76040;SHT30;64736;50.462;4.850;2023-03-03T08:33:20;-0.41;89.62
76040;SHT30;64736;50.462;4.850;2023-03-03T08:35:47;-0.54;89.29
76040;SHT30;64736;50.462;4.850;2023-03-03T08:38:15;-0.52;88.90
76040;SHT30;64736;50.462;4.850;2023-03-03T08:40:41;-0.54;88.76
76040;SHT30;64736;50.462;4.850;2023-03-03T08:43:09;-0.60;89.07
76040;SHT30;64736;50.462;4.850;2023-03-03T08:45:35;-0.63;89.31
76040;SHT30;64736;50.462;4.850;2023-03-03T08:48:02;-0.47;89.44
76040;SHT30;64736;50.462;4.850;2023-03-03T08:50:28;-0.46;89.27
76040;SHT30;64736;50.462;4.850;2023-03-03T08:52:54;-0.52;89.00
76040;SHT30;64736;50.462;4.850;2023-03-03T08:55:20;-0.40;88.76
76040;SHT30;64736;50.462;4.850;2023-03-03T08:57:46;-0.40;88.68
76040;SHT30;64736;50.462;4.850;2023-03-03T09:00:14;-0.52;88.61
76040;SHT30;64736;50.462;4.850;2023-03-03T09:02:41;-0.41;88.59
76040;SHT30;64736;50.462;4.850;2023-03-03T09:05:07;-0.29;88.60
76040;SHT30;64736;50.462;4.850;2023-03-03T09:07:34;-0.34;88.24
76040;SHT30;64736;50.462;4.850;2023-03-03T09:09:59;-0.32;88.48
76040;SHT30;64736;50.462;4.850;2023-03-03T09:12:32;-0.22;88.64
76040;SHT30;64736;50.462;4.850;2023-03-03T09:15:13;-0.23;88.34
76040;SHT30;64736;50.462;4.850;2023-03-03T09:17:40;-0.18;88.43
76040;SHT30;64736;50.462;4.850;2023-03-03T09:20:33;-0.12;87.93
76040;SHT30;64736;50.462;4.850;2023-03-03T09:25:51;-0.09;86.45
76040;SHT30;64736;50.462;4.850;2023-03-03T09:28:29;-0.34;87.96
76040;SHT30;64736;50.462;4.850;2023-03-03T09:31:00;-0.30;88.23
76040;SHT30;64736;50.462;4.850;2023-03-03T09:33:44;-0.30;87.77
76040;SHT30;64736;50.462;4.850;2023-03-03T09:36:23;-0.26;88.18
76040;SHT30;64736;50.462;4.850;2023-03-03T09:38:50;-0.26;88.07
76040;SHT30;64736;50.462;4.850;2023-03-03T09:44:29;-0.20;88.17
76040;SHT30;64736;50.462;4.850;2023-03-03T09:49:32;-0.19;88.18
76040;SHT30;64736;50.462;4.850;2023-03-03T10:11:12;-0.13;87.28
76040;SHT30;64736;50.462;4.850;2023-03-03T10:19:35;-0.08;86.59
76040;SHT30;64736;50.462;4.850;2023-03-03T10:22:22;-0.12;86.41
76040;SHT30;64736;50.462;4.850;2023-03-03T10:25:07;-0.03;86.06
76040;SHT30;64736;50.462;4.850;2023-03-03T10:30:32;0.02;86.30
76040;SHT30;64736;50.462;4.850;2023-03-03T10:50:29;0.09;85.82
76040;SHT30;64736;50.462;4.850;2023-03-03T10:53:33;-0.01;85.49
76040;SHT30;64736;50.462;4.850;2023-03-03T10:56:14;0.01;84.91
76040;SHT30;64736;50.462;4.850;2023-03-03T11:02:01;0.16;84.98
76040;SHT30;64736;50.462;4.850;2023-03-03T11:23:45;0.30;84.83
76040;SHT30;64736;50.462;4.850;2023-03-03T11:31:37;0.36;84.60
76040;SHT30;64736;50.462;4.850;2023-03-03T11:36:57;0.42;83.91
76040;SHT30;64736;50.462;4.850;2023-03-03T11:39:26;0.61;83.83
76040;SHT30;64736;50.462;4.850;2023-03-03T11:41:58;0.64;83.60
76040;SHT30;64736;50.462;4.850;2023-03-03T11:50:35;0.85;81.63
76040;SHT30;64736;50.462;4.850;2023-03-03T11:56:20;0.71;82.14
76040;SHT30;64736;50.462;4.850;2023-03-03T11:59:02;0.83;81.90
76040;SHT30;64736;50.462;4.850;2023-03-03T12:01:38;0.68;82.27
76040;SHT30;64736;50.462;4.850;2023-03-03T12:04:13;0.71;82.29
76040;SHT30;64736;50.462;4.850;2023-03-03T12:09:34;0.85;81.93
76040;SHT30;64736;50.462;4.850;2023-03-03T12:12:30;0.88;81.47
76040;SHT30;64736;50.462;4.850;2023-03-03T12:18:30;0.88;81.96
76040;SHT30;64736;50.462;4.850;2023-03-03T12:23:52;0.83;82.24
76040;SHT30;64736;50.462;4.850;2023-03-03T12:26:40;1.01;82.03
76040;SHT30;64736;50.462;4.850;2023-03-03T12:34:52;1.22;81.04
76040;SHT30;64736;50.462;4.850;2023-03-03T12:37:40;0.91;81.53
76040;SHT30;64736;50.462;4.850;2023-03-03T12:40:13;1.12;81.31
76040;SHT30;64736;50.462;4.850;2023-03-03T12:45:40;1.19;81.30
76040;SHT30;64736;50.462;4.850;2023-03-03T13:05:22;1.12;81.42
76040;SHT30;64736;50.462;4.850;2023-03-03T13:16:19;1.49;80.02
76040;SHT30;64736;50.462;4.850;2023-03-03T13:18:56;1.59;79.05
76040;SHT30;64736;50.462;4.850;2023-03-03T13:27:25;1.57;79.15
76040;SHT30;64736;50.462;4.850;2023-03-03T13:29:55;1.05;80.09
76040;SHT30;64736;50.462;4.850;2023-03-03T13:35:13;1.49;79.37
76040;SHT30;64736;50.462;4.850;2023-03-03T13:37:51;1.50;79.19
76040;SHT30;64736;50.462;4.850;2023-03-03T13:46:21;1.68;77.88
76040;SHT30;64736;50.462;4.850;2023-03-03T13:49:16;1.53;78.98
76040;SHT30;64736;50.462;4.850;2023-03-03T13:54:57;1.52;79.35
76040;SHT30;64736;50.462;4.850;2023-03-03T14:00:29;1.40;79.25
76040;SHT30;64736;50.462;4.850;2023-03-03T14:05:50;1.35;79.61
76040;SHT30;64736;50.462;4.850;2023-03-03T14:16:57;1.46;78.49
76040;SHT30;64736;50.462;4.850;2023-03-03T14:19:43;1.57;78.88
76040;SHT30;64736;50.462;4.850;2023-03-03T14:22:18;1.63;78.89
76040;SHT30;64736;50.462;4.850;2023-03-03T14:25:04;1.56;79.10
76040;SHT30;64736;50.462;4.850;2023-03-03T14:30:30;1.73;78.38
76040;SHT30;64736;50.462;4.850;2023-03-03T14:35:40;1.87;78.27
76040;SHT30;64736;50.462;4.850;2023-03-03T14:38:14;2.00;77.98
76040;SHT30;64736;50.462;4.850;2023-03-03T14:40:42;1.81;78.57
76040;SHT30;64736;50.462;4.850;2023-03-03T14:43:33;1.84;78.52
76040;SHT30;64736;50.462;4.850;2023-03-03T14:48:57;1.88;78.51
76040;SHT30;64736;50.462;4.850;2023-03-03T14:51:47;1.95;78.18
76040;SHT30;64736;50.462;4.850;2023-03-03T14:54:36;1.81;78.73
76040;SHT30;64736;50.462;4.850;2023-03-03T14:57:17;1.73;79.08
76040;SHT30;64736;50.462;4.850;2023-03-03T14:59:56;1.83;78.97
76040;SHT30;64736;50.462;4.850;2023-03-03T15:02:29;2.11;78.23
76040;SHT30;64736;50.462;4.850;2023-03-03T15:05:31;1.94;78.74
76040;SHT30;64736;50.462;4.850;2023-03-03T15:10:42;2.10;78.01
76040;SHT30;64736;50.462;4.850;2023-03-03T15:13:32;2.04;77.93
76040;SHT30;64736;50.462;4.850;2023-03-03T15:18:24;2.05;76.99
76040;SHT30;64736;50.462;4.850;2023-03-03T15:21:12;2.00;77.19
76040;SHT30;64736;50.462;4.850;2023-03-03T15:27:09;2.21;76.71
76040;SHT30;64736;50.462;4.850;2023-03-03T15:32:40;2.36;77.16
76040;SHT30;64736;50.462;4.850;2023-03-03T15:35:25;2.33;76.70
76040;SHT30;64736;50.462;4.850;2023-03-03T15:38:06;2.32;76.93
76040;SHT30;64736;50.462;4.850;2023-03-03T15:40:45;2.43;76.72
76040;SHT30;64736;50.462;4.850;2023-03-03T15:45:52;2.42;76.01
76040;SHT30;64736;50.462;4.850;2023-03-03T15:51:59;2.38;75.87
76040;SHT30;64736;50.462;4.850;2023-03-03T15:54:49;2.45;75.69
76040;SHT30;64736;50.462;4.850;2023-03-03T15:57:31;2.42;75.86
76040;SHT30;64736;50.462;4.850;2023-03-03T16:03:00;2.52;75.63
76040;SHT30;64736;50.462;4.850;2023-03-03T16:06:04;2.49;75.72
76040;SHT30;64736;50.462;4.850;2023-03-03T16:14:09;2.66;75.43
76040;SHT30;64736;50.462;4.850;2023-03-03T16:19:17;2.57;75.62
76040;SHT30;64736;50.462;4.850;2023-03-03T16:21:53;2.49;76.10
76040;SHT30;64736;50.462;4.850;2023-03-03T16:27:27;2.49;75.92
76040;SHT30;64736;50.462;4.850;2023-03-03T16:32:50;2.57;76.18
76040;SHT30;64736;50.462;4.850;2023-03-03T16:35:25;2.60;76.21
76040;SHT30;64736;50.462;4.850;2023-03-03T16:38:08;2.49;76.24
76040;SHT30;64736;50.462;4.850;2023-03-03T16:40:56;2.63;75.86
76040;SHT30;64736;50.462;4.850;2023-03-03T16:43:57;2.53;76.45
76040;SHT30;64736;50.462;4.850;2023-03-03T16:46:40;2.56;76.41
76040;SHT30;64736;50.462;4.850;2023-03-03T16:52:12;2.46;76.76
76040;SHT30;64736;50.462;4.850;2023-03-03T16:54:46;2.54;77.05
76040;SHT30;64736;50.462;4.850;2023-03-03T16:57:51;2.52;77.00
76040;SHT30;64736;50.462;4.850;2023-03-03T17:00:21;2.49;76.97
76040;SHT30;64736;50.462;4.850;2023-03-03T17:03:09;2.54;77.18
76040;SHT30;64736;50.462;4.850;2023-03-03T17:05:46;2.60;76.60
76040;SHT30;64736;50.462;4.850;2023-03-03T17:22:13;2.26;77.02
76040;SHT30;64736;50.462;4.850;2023-03-03T17:24:56;2.22;77.08
76040;SHT30;64736;50.462;4.850;2023-03-03T17:27:44;2.10;77.74
76040;SHT30;64736;50.462;4.850;2023-03-03T17:33:03;2.01;77.45
76040;SHT30;64736;50.462;4.850;2023-03-03T17:35:45;1.94;77.66
76040;SHT30;64736;50.462;4.850;2023-03-03T17:43:53;1.77;78.09
76040;SHT30;64736;50.462;4.850;2023-03-03T17:46:35;1.70;78.31
76040;SHT30;64736;50.462;4.850;2023-03-03T17:52:14;1.59;78.56
76040;SHT30;64736;50.462;4.850;2023-03-03T18:00:27;1.40;79.22
76040;SHT30;64736;50.462;4.850;2023-03-03T18:03:20;1.39;79.14
76040;SHT30;64736;50.462;4.850;2023-03-03T18:14:21;1.18;79.91
76040;SHT30;64736;50.462;4.850;2023-03-03T18:22:54;1.09;80.00
76040;SHT30;64736;50.462;4.850;2023-03-03T18:25:53;1.11;79.89
76040;SHT30;64736;50.462;4.850;2023-03-03T18:28:22;1.02;80.50
76040;SHT30;64736;50.462;4.850;2023-03-03T18:31:18;1.04;80.82
76040;SHT30;64736;50.462;4.850;2023-03-03T18:38:58;0.99;80.24
76040;SHT30;64736;50.462;4.850;2023-03-03T18:41:26;0.89;80.31
76040;SHT30;64736;50.462;4.850;2023-03-03T18:44:42;0.68;81.07
76040;SHT30;64736;50.462;4.850;2023-03-03T18:46:45;0.88;80.83
76040;SHT30;64736;50.462;4.850;2023-03-03T18:49:11;0.83;80.85
76040;SHT30;64736;50.462;4.850;2023-03-03T19:02:32;0.73;81.06
76040;SHT30;64736;50.462;4.850;2023-03-03T19:12:53;0.47;82.76
76040;SHT30;64736;50.462;4.850;2023-03-03T19:18:02;0.20;83.59
76040;SHT30;64736;50.462;4.850;2023-03-03T19:20:39;0.56;82.60
76040;SHT30;64736;50.462;4.850;2023-03-03T19:23:16;0.59;81.37
76040;SHT30;64736;50.462;4.850;2023-03-03T19:25:43;0.47;81.53
76040;SHT30;64736;50.462;4.850;2023-03-03T19:47:08;0.01;82.89
76040;SHT30;64736;50.462;4.850;2023-03-03T19:52:43;-0.16;83.59
76040;SHT30;64736;50.462;4.850;2023-03-03T19:55:17;0.09;83.45
76040;SHT30;64736;50.462;4.850;2023-03-03T19:57:49;0.01;83.65
76040;SHT30;64736;50.462;4.850;2023-03-03T20:00:35;-0.13;83.34
76040;SHT30;64736;50.462;4.850;2023-03-03T20:05:35;-0.25;84.55
76040;SHT30;64736;50.462;4.850;2023-03-03T20:08:22;-0.28;84.44
76040;SHT30;64736;50.462;4.850;2023-03-03T20:11:09;0.03;83.91
76040;SHT30;64736;50.462;4.850;2023-03-03T20:13:56;-0.28;83.75
76040;SHT30;64736;50.462;4.850;2023-03-03T20:16:39;-0.12;84.34
76040;SHT30;64736;50.462;4.850;2023-03-03T20:19:36;-0.39;84.12
76040;SHT30;64736;50.462;4.850;2023-03-03T20:22:26;-0.28;84.69
76040;SHT30;64736;50.462;4.850;2023-03-03T20:27:51;-0.34;83.88
76040;SHT30;64736;50.462;4.850;2023-03-03T20:39:37;-0.15;83.97
76040;SHT30;64736;50.462;4.850;2023-03-03T20:50:28;-0.26;84.38
76040;SHT30;64736;50.462;4.850;2023-03-03T20:53:19;-0.39;84.28
76040;SHT30;64736;50.462;4.850;2023-03-03T20:59:00;-0.19;83.66
76040;SHT30;64736;50.462;4.850;2023-03-03T21:01:37;-0.54;83.95
76040;SHT30;64736;50.462;4.850;2023-03-03T21:04:24;-0.37;84.64
76040;SHT30;64736;50.462;4.850;2023-03-03T21:06:50;-0.73;84.83
76040;SHT30;64736;50.462;4.850;2023-03-03T21:11:51;-0.61;85.67
76040;SHT30;64736;50.462;4.850;2023-03-03T21:14:23;-0.40;85.54
76040;SHT30;64736;50.462;4.850;2023-03-03T21:16:50;-0.63;84.96
76040;SHT30;64736;50.462;4.850;2023-03-03T21:19:30;-0.15;83.94
76040;SHT30;64736;50.462;4.850;2023-03-03T21:21:58;-0.33;82.96
76040;SHT30;64736;50.462;4.850;2023-03-03T21:24:54;-0.28;83.15
76040;SHT30;64736;50.462;4.850;2023-03-03T21:27:29;-0.40;83.29
76040;SHT30;64736;50.462;4.850;2023-03-03T21:30:12;-0.84;84.13
76040;SHT30;64736;50.462;4.850;2023-03-03T21:32:46;-0.39;84.65
76040;SHT30;64736;50.462;4.850;2023-03-03T21:35:16;-0.63;84.02
76040;SHT30;64736;50.462;4.850;2023-03-03T21:37:49;-0.97;84.93
76040;SHT30;64736;50.462;4.850;2023-03-03T21:40:22;-1.02;85.68
76040;SHT30;64736;50.462;4.850;2023-03-03T21:42:50;-0.94;85.91
76040;SHT30;64736;50.462;4.850;2023-03-03T21:45:16;-0.91;85.74
76040;SHT30;64736;50.462;4.850;2023-03-03T21:47:45;-0.95;86.22
76040;SHT30;64736;50.462;4.850;2023-03-03T21:50:15;-0.83;86.31
76040;SHT30;64736;50.462;4.850;2023-03-03T21:52:41;-0.84;86.18
76040;SHT30;64736;50.462;4.850;2023-03-03T21:55:07;-0.81;86.08
76040;SHT30;64736;50.462;4.850;2023-03-03T21:57:33;-0.84;86.23
76040;SHT30;64736;50.462;4.850;2023-03-03T22:00:00;-0.85;86.41
76040;SHT30;64736;50.462;4.850;2023-03-03T22:02:25;-0.92;86.50
76040;SHT30;64736;50.462;4.850;2023-03-03T22:04:51;-0.77;86.43
76040;SHT30;64736;50.462;4.850;2023-03-03T22:07:17;-0.91;86.32
76040;SHT30;64736;50.462;4.850;2023-03-03T22:09:43;-0.80;86.45
76040;SHT30;64736;50.462;4.850;2023-03-03T22:12:08;-0.77;86.11